sensor_id;sensor_type;location;lat;lon;timestamp;temperature;humidity
32506;DHT22;18955;51.224;8.482;2024-03-06T00:02:08;9.10;76.70
32506;DHT22;18955;51.224;8.482;2024-03-06T00:04:34;8.90;77.30
32506;DHT22;18955;51.224;8.482;2024-03-06T00:07:01;9.10;77.30
32506;DHT22;18955;51.224;8.482;2024-03-06T00:09:27;9.50;75.60
32506;DHT22;18955;51.224;8.482;2024-03-06T00:11:55;9.40;75.70
32506;DHT22;18955;51.224;8.482;2024-03-06T00:14:22;9.20;76.30
32506;DHT22;18955;51.224;8.482;2024-03-06T00:16:49;9.00;76.90
32506;DHT22;18955;51.224;8.482;2024-03-06T00:19:19;8.90;77.40
32506;DHT22;18955;51.224;8.482;2024-03-06T00:21:46;9.30;76.10
32506;DHT22;18955;51.224;8.482;2024-03-06T00:24:13;9.40;75.60
32506;DHT22;18955;51.224;8.482;2024-03-06T00:26:41;9.30;76.10
32506;DHT22;18955;51.224;8.482;2024-03-06T00:29:08;9.10;76.70
32506;DHT22;18955;51.224;8.482;2024-03-06T00:31:34;8.90;77.20
32506;DHT22;18955;51.224;8.482;2024-03-06T00:34:00;9.10;77.20
32506;DHT22;18955;51.224;8.482;2024-03-06T00:36:27;9.40;75.50
32506;DHT22;18955;51.224;8.482;2024-03-06T00:38:53;9.30;75.60
32506;DHT22;18955;51.224;8.482;2024-03-06T00:41:19;9.10;76.30
32506;DHT22;18955;51.224;8.482;2024-03-06T00:43:46;9.00;76.90
32506;DHT22;18955;51.224;8.482;2024-03-06T00:46:12;8.90;77.30
32506;DHT22;18955;51.224;8.482;2024-03-06T00:48:38;9.40;75.80
32506;DHT22;18955;51.224;8.482;2024-03-06T00:51:08;9.40;75.40
32506;DHT22;18955;51.224;8.482;2024-03-06T00:53:37;9.20;75.90
32506;DHT22;18955;51.224;8.482;2024-03-06T00:56:03;9.00;76.80
32506;DHT22;18955;51.224;8.482;2024-03-06T00:58:30;8.80;77.20
32506;DHT22;18955;51.224;8.482;2024-03-06T01:00:56;9.10;76.70
32506;DHT22;18955;51.224;8.482;2024-03-06T01:03:24;9.40;75.40
32506;DHT22;18955;51.224;8.482;2024-03-06T01:05:52;9.20;75.60
32506;DHT22;18955;51.224;8.482;2024-03-06T01:08:19;9.00;76.50
32506;DHT22;18955;51.224;8.482;2024-03-06T01:10:46;8.90;77.00
32506;DHT22;18955;51.224;8.482;2024-03-06T01:13:12;8.90;77.40
32506;DHT22;18955;51.224;8.482;2024-03-06T01:15:38;9.30;75.50
32506;DHT22;18955;51.224;8.482;2024-03-06T01:18:05;9.30;75.60
32506;DHT22;18955;51.224;8.482;2024-03-06T01:20:31;9.10;76.10
32506;DHT22;18955;51.224;8.482;2024-03-06T01:22:57;8.90;76.70
32506;DHT22;18955;51.224;8.482;2024-03-06T01:25:24;8.80;77.20
32506;DHT22;18955;51.224;8.482;2024-03-06T01:27:50;9.20;75.90
32506;DHT22;18955;51.224;8.482;2024-03-06T01:30:17;9.30;75.50
32506;DHT22;18955;51.224;8.482;2024-03-06T01:32:43;9.10;75.90
32506;DHT22;18955;51.224;8.482;2024-03-06T01:35:09;9.00;76.60
32506;DHT22;18955;51.224;8.482;2024-03-06T01:37:35;8.80;77.10
32506;DHT22;18955;51.224;8.482;2024-03-06T01:40:02;9.10;76.80
32506;DHT22;18955;51.224;8.482;2024-03-06T01:42:30;9.30;75.40
32506;DHT22;18955;51.224;8.482;2024-03-06T01:44:57;9.10;75.60
32506;DHT22;18955;51.224;8.482;2024-03-06T01:47:23;9.00;76.30
32506;DHT22;18955;51.224;8.482;2024-03-06T01:49:49;8.80;76.90
32506;DHT22;18955;51.224;8.482;2024-03-06T01:52:21;8.90;77.30
32506;DHT22;18955;51.224;8.482;2024-03-06T01:54:48;9.20;75.60
32506;DHT22;18955;51.224;8.482;2024-03-06T01:57:16;9.10;75.60
32506;DHT22;18955;51.224;8.482;2024-03-06T01:59:43;9.00;76.30
32506;DHT22;18955;51.224;8.482;2024-03-06T02:02:09;8.80;76.80
32506;DHT22;18955;51.224;8.482;2024-03-06T02:04:38;8.80;77.10
32506;DHT22;18955;51.224;8.482;2024-03-06T02:07:08;9.20;75.60
32506;DHT22;18955;51.224;8.482;2024-03-06T02:09:37;9.20;75.50
32506;DHT22;18955;51.224;8.482;2024-03-06T02:12:04;9.00;76.00
32506;DHT22;18955;51.224;8.482;2024-03-06T02:14:30;8.80;76.60
32506;DHT22;18955;51.224;8.482;2024-03-06T02:16:56;8.70;77.20
32506;DHT22;18955;51.224;8.482;2024-03-06T02:19:22;9.20;75.90
32506;DHT22;18955;51.224;8.482;2024-03-06T02:21:49;9.20;75.30
32506;DHT22;18955;51.224;8.482;2024-03-06T02:24:15;9.10;75.90
32506;DHT22;18955;51.224;8.482;2024-03-06T02:26:41;8.90;76.50
32506;DHT22;18955;51.224;8.482;2024-03-06T02:29:08;8.70;77.00
32506;DHT22;18955;51.224;8.482;2024-03-06T02:31:35;9.00;76.60
32506;DHT22;18955;51.224;8.482;2024-03-06T02:34:01;9.20;75.40
32506;DHT22;18955;51.224;8.482;2024-03-06T02:36:32;9.10;75.70
32506;DHT22;18955;51.224;8.482;2024-03-06T02:38:58;8.90;76.40
32506;DHT22;18955;51.224;8.482;2024-03-06T02:41:24;8.70;76.90
32506;DHT22;18955;51.224;8.482;2024-03-06T02:43:50;8.90;76.90
32506;DHT22;18955;51.224;8.482;2024-03-06T02:46:18;9.20;75.20
32506;DHT22;18955;51.224;8.482;2024-03-06T02:48:44;9.10;75.40
32506;DHT22;18955;51.224;8.482;2024-03-06T02:51:11;8.90;76.10
32506;DHT22;18955;51.224;8.482;2024-03-06T02:53:37;8.70;76.70
32506;DHT22;18955;51.224;8.482;2024-03-06T02:56:03;8.70;77.00
32506;DHT22;18955;51.224;8.482;2024-03-06T02:58:30;9.20;76.10
32506;DHT22;18955;51.224;8.482;2024-03-06T03:00:57;9.10;75.30
32506;DHT22;18955;51.224;8.482;2024-03-06T03:03:23;8.90;76.00
32506;DHT22;18955;51.224;8.482;2024-03-06T03:05:51;8.70;76.60
32506;DHT22;18955;51.224;8.482;2024-03-06T03:08:17;8.70;77.00
32506;DHT22;18955;51.224;8.482;2024-03-06T03:10:43;9.10;75.70
32506;DHT22;18955;51.224;8.482;2024-03-06T03:13:10;9.10;75.40
32506;DHT22;18955;51.224;8.482;2024-03-06T03:15:37;8.90;76.00
32506;DHT22;18955;51.224;8.482;2024-03-06T03:18:03;8.70;76.70
32506;DHT22;18955;51.224;8.482;2024-03-06T03:20:29;8.60;77.00
32506;DHT22;18955;51.224;8.482;2024-03-06T03:22:55;9.10;75.80
32506;DHT22;18955;51.224;8.482;2024-03-06T03:25:21;9.10;75.20
32506;DHT22;18955;51.224;8.482;2024-03-06T03:27:48;8.90;75.70
32506;DHT22;18955;51.224;8.482;2024-03-06T03:30:14;8.80;76.60
32506;DHT22;18955;51.224;8.482;2024-03-06T03:32:42;8.60;77.00
32506;DHT22;18955;51.224;8.482;2024-03-06T03:35:08;9.00;76.10
32506;DHT22;18955;51.224;8.482;2024-03-06T03:37:34;9.10;75.20
32506;DHT22;18955;51.224;8.482;2024-03-06T03:40:01;9.00;75.60
32506;DHT22;18955;51.224;8.482;2024-03-06T03:42:27;8.70;76.20
32506;DHT22;18955;51.224;8.482;2024-03-06T03:44:53;8.60;76.80
32506;DHT22;18955;51.224;8.482;2024-03-06T03:47:19;8.90;76.40
32506;DHT22;18955;51.224;8.482;2024-03-06T03:49:45;9.10;75.00
32506;DHT22;18955;51.224;8.482;2024-03-06T03:52:13;9.00;75.40
32506;DHT22;18955;51.224;8.482;2024-03-06T03:54:39;8.80;76.00
32506;DHT22;18955;51.224;8.482;2024-03-06T03:57:06;8.60;76.60
32506;DHT22;18955;51.224;8.482;2024-03-06T03:59:34;8.80;76.80
32506;DHT22;18955;51.224;8.482;2024-03-06T04:02:00;9.10;75.10
32506;DHT22;18955;51.224;8.482;2024-03-06T04:04:26;9.00;75.30
32506;DHT22;18955;51.224;8.482;2024-03-06T04:06:53;8.80;75.90
32506;DHT22;18955;51.224;8.482;2024-03-06T04:09:19;8.60;76.50
32506;DHT22;18955;51.224;8.482;2024-03-06T04:11:45;8.60;76.90
32506;DHT22;18955;51.224;8.482;2024-03-06T04:14:11;9.00;75.10
32506;DHT22;18955;51.224;8.482;2024-03-06T04:16:37;9.00;75.20
32506;DHT22;18955;51.224;8.482;2024-03-06T04:19:04;8.80;75.90
32506;DHT22;18955;51.224;8.482;2024-03-06T04:21:30;8.60;76.50
32506;DHT22;18955;51.224;8.482;2024-03-06T04:23:57;8.60;76.80
32506;DHT22;18955;51.224;8.482;2024-03-06T04:26:24;9.00;75.30
32506;DHT22;18955;51.224;8.482;2024-03-06T04:28:50;9.00;75.20
32506;DHT22;18955;51.224;8.482;2024-03-06T04:31:16;8.80;75.80
32506;DHT22;18955;51.224;8.482;2024-03-06T04:33:42;8.60;76.30
32506;DHT22;18955;51.224;8.482;2024-03-06T04:36:10;8.60;76.80
32506;DHT22;18955;51.224;8.482;2024-03-06T04:38:36;9.00;75.30
32506;DHT22;18955;51.224;8.482;2024-03-06T04:41:04;9.00;75.00
32506;DHT22;18955;51.224;8.482;2024-03-06T04:43:31;8.80;75.70
32506;DHT22;18955;51.224;8.482;2024-03-06T04:45:57;8.60;76.50
32506;DHT22;18955;51.224;8.482;2024-03-06T04:48:23;8.50;76.70
32506;DHT22;18955;51.224;8.482;2024-03-06T04:50:49;9.00;75.30
32506;DHT22;18955;51.224;8.482;2024-03-06T04:53:15;9.00;75.00
32506;DHT22;18955;51.224;8.482;2024-03-06T04:55:42;8.80;75.50
32506;DHT22;18955;51.224;8.482;2024-03-06T04:58:08;8.60;76.20
32506;DHT22;18955;51.224;8.482;2024-03-06T05:00:35;8.50;76.60
32506;DHT22;18955;51.224;8.482;2024-03-06T05:03:02;9.00;75.30
32506;DHT22;18955;51.224;8.482;2024-03-06T05:05:28;9.00;74.90
32506;DHT22;18955;51.224;8.482;2024-03-06T05:07:55;8.80;75.40
32506;DHT22;18955;51.224;8.482;2024-03-06T05:10:21;8.60;76.20
32506;DHT22;18955;51.224;8.482;2024-03-06T05:12:48;8.50;76.60
32506;DHT22;18955;51.224;8.482;2024-03-06T05:15:14;8.90;75.40
32506;DHT22;18955;51.224;8.482;2024-03-06T05:17:40;9.00;74.90
32506;DHT22;18955;51.224;8.482;2024-03-06T05:20:07;8.80;75.40
32506;DHT22;18955;51.224;8.482;2024-03-06T05:22:33;8.60;76.10
32506;DHT22;18955;51.224;8.482;2024-03-06T05:25:00;8.50;76.60
32506;DHT22;18955;51.224;8.482;2024-03-06T05:27:26;8.90;75.50
32506;DHT22;18955;51.224;8.482;2024-03-06T05:29:52;9.00;74.70
32506;DHT22;18955;51.224;8.482;2024-03-06T05:32:18;8.80;75.30
32506;DHT22;18955;51.224;8.482;2024-03-06T05:34:45;8.60;76.50
32506;DHT22;18955;51.224;8.482;2024-03-06T05:37:11;8.40;76.50
32506;DHT22;18955;51.224;8.482;2024-03-06T05:39:37;8.80;75.80
32506;DHT22;18955;51.224;8.482;2024-03-06T05:42:04;9.00;74.80
32506;DHT22;18955;51.224;8.482;2024-03-06T05:44:31;8.80;75.20
32506;DHT22;18955;51.224;8.482;2024-03-06T05:47:02;8.60;75.80
32506;DHT22;18955;51.224;8.482;2024-03-06T05:49:29;8.40;76.50
32506;DHT22;18955;51.224;8.482;2024-03-06T05:51:55;8.80;75.70
32506;DHT22;18955;51.224;8.482;2024-03-06T05:54:22;9.00;74.70
32506;DHT22;18955;51.224;8.482;2024-03-06T05:56:48;8.80;75.20
32506;DHT22;18955;51.224;8.482;2024-03-06T05:59:16;8.60;76.00
32506;DHT22;18955;51.224;8.482;2024-03-06T06:01:42;8.40;76.50
32506;DHT22;18955;51.224;8.482;2024-03-06T06:04:08;8.80;75.90
32506;DHT22;18955;51.224;8.482;2024-03-06T06:06:35;8.90;75.00
32506;DHT22;18955;51.224;8.482;2024-03-06T06:09:01;8.70;75.30
32506;DHT22;18955;51.224;8.482;2024-03-06T06:11:31;8.50;76.00
32506;DHT22;18955;51.224;8.482;2024-03-06T06:13:59;8.40;76.80
32506;DHT22;18955;51.224;8.482;2024-03-06T06:16:26;8.80;75.60
32506;DHT22;18955;51.224;8.482;2024-03-06T06:18:52;8.90;74.90
32506;DHT22;18955;51.224;8.482;2024-03-06T06:21:18;8.70;75.30
32506;DHT22;18955;51.224;8.482;2024-03-06T06:23:44;8.50;76.00
32506;DHT22;18955;51.224;8.482;2024-03-06T06:26:11;8.40;76.50
32506;DHT22;18955;51.224;8.482;2024-03-06T06:28:37;8.80;75.20
32506;DHT22;18955;51.224;8.482;2024-03-06T06:31:04;8.90;74.80
32506;DHT22;18955;51.224;8.482;2024-03-06T06:33:30;8.70;75.30
32506;DHT22;18955;51.224;8.482;2024-03-06T06:35:57;8.50;76.10
32506;DHT22;18955;51.224;8.482;2024-03-06T06:38:23;8.40;76.50
32506;DHT22;18955;51.224;8.482;2024-03-06T06:40:49;8.80;75.20
32506;DHT22;18955;51.224;8.482;2024-03-06T06:43:16;8.90;74.80
32506;DHT22;18955;51.224;8.482;2024-03-06T06:45:42;8.70;75.30
32506;DHT22;18955;51.224;8.482;2024-03-06T06:48:09;8.50;76.10
32506;DHT22;18955;51.224;8.482;2024-03-06T06:50:35;8.40;76.50
32506;DHT22;18955;51.224;8.482;2024-03-06T06:53:02;8.80;75.10
32506;DHT22;18955;51.224;8.482;2024-03-06T06:55:28;8.90;74.70
32506;DHT22;18955;51.224;8.482;2024-03-06T06:57:54;8.70;75.30
32506;DHT22;18955;51.224;8.482;2024-03-06T07:00:21;8.50;76.00
32506;DHT22;18955;51.224;8.482;2024-03-06T07:02:49;8.40;76.50
32506;DHT22;18955;51.224;8.482;2024-03-06T07:05:15;8.80;75.10
32506;DHT22;18955;51.224;8.482;2024-03-06T07:07:41;8.90;74.80
32506;DHT22;18955;51.224;8.482;2024-03-06T07:10:08;8.70;75.30
32506;DHT22;18955;51.224;8.482;2024-03-06T07:12:35;8.50;76.00
32506;DHT22;18955;51.224;8.482;2024-03-06T07:15:02;8.40;76.50
32506;DHT22;18955;51.224;8.482;2024-03-06T07:17:31;8.80;74.90
32506;DHT22;18955;51.224;8.482;2024-03-06T07:19:57;8.90;74.80
32506;DHT22;18955;51.224;8.482;2024-03-06T07:22:23;8.70;75.40
32506;DHT22;18955;51.224;8.482;2024-03-06T07:24:49;8.50;76.30
32506;DHT22;18955;51.224;8.482;2024-03-06T07:27:16;8.40;76.60
32506;DHT22;18955;51.224;8.482;2024-03-06T07:29:42;8.80;75.00
32506;DHT22;18955;51.224;8.482;2024-03-06T07:32:08;8.80;74.90
32506;DHT22;18955;51.224;8.482;2024-03-06T07:34:34;8.60;75.50
32506;DHT22;18955;51.224;8.482;2024-03-06T07:37:00;8.40;76.20
32506;DHT22;18955;51.224;8.482;2024-03-06T07:39:27;8.40;76.60
32506;DHT22;18955;51.224;8.482;2024-03-06T07:41:53;8.90;74.90
32506;DHT22;18955;51.224;8.482;2024-03-06T07:44:20;8.80;74.90
32506;DHT22;18955;51.224;8.482;2024-03-06T07:46:46;8.60;75.60
32506;DHT22;18955;51.224;8.482;2024-03-06T07:49:13;8.40;76.40
32506;DHT22;18955;51.224;8.482;2024-03-06T07:51:39;8.50;76.80
32506;DHT22;18955;51.224;8.482;2024-03-06T07:54:06;8.80;75.00
32506;DHT22;18955;51.224;8.482;2024-03-06T07:56:33;8.70;75.10
32506;DHT22;18955;51.224;8.482;2024-03-06T07:59:00;8.60;75.90
32506;DHT22;18955;51.224;8.482;2024-03-06T08:01:26;8.40;76.50
32506;DHT22;18955;51.224;8.482;2024-03-06T08:03:55;8.60;76.40
32506;DHT22;18955;51.224;8.482;2024-03-06T08:06:21;8.90;74.80
32506;DHT22;18955;51.224;8.482;2024-03-06T08:08:47;8.80;75.10
32506;DHT22;18955;51.224;8.482;2024-03-06T08:11:14;8.60;76.00
32506;DHT22;18955;51.224;8.482;2024-03-06T08:13:40;8.40;76.50
32506;DHT22;18955;51.224;8.482;2024-03-06T08:16:07;8.70;76.10
32506;DHT22;18955;51.224;8.482;2024-03-06T08:18:33;8.90;74.70
32506;DHT22;18955;51.224;8.482;2024-03-06T08:21:01;8.80;75.10
32506;DHT22;18955;51.224;8.482;2024-03-06T08:23:27;8.60;75.90
32506;DHT22;18955;51.224;8.482;2024-03-06T08:25:53;8.40;76.50
32506;DHT22;18955;51.224;8.482;2024-03-06T08:28:20;8.70;76.10
32506;DHT22;18955;51.224;8.482;2024-03-06T08:30:46;8.90;74.80
32506;DHT22;18955;51.224;8.482;2024-03-06T08:33:13;8.80;75.20
32506;DHT22;18955;51.224;8.482;2024-03-06T08:35:39;8.60;76.00
32506;DHT22;18955;51.224;8.482;2024-03-06T08:38:05;8.50;76.90
32506;DHT22;18955;51.224;8.482;2024-03-06T08:40:32;8.70;76.30
32506;DHT22;18955;51.224;8.482;2024-03-06T08:42:59;9.00;74.90
32506;DHT22;18955;51.224;8.482;2024-03-06T08:45:25;8.80;75.20
32506;DHT22;18955;51.224;8.482;2024-03-06T08:47:52;8.70;76.10
32506;DHT22;18955;51.224;8.482;2024-03-06T08:50:20;8.50;76.80
32506;DHT22;18955;51.224;8.482;2024-03-06T08:52:46;8.80;76.20
32506;DHT22;18955;51.224;8.482;2024-03-06T08:55:13;9.00;74.90
32506;DHT22;18955;51.224;8.482;2024-03-06T08:57:39;8.90;75.20
32506;DHT22;18955;51.224;8.482;2024-03-06T09:00:07;8.70;76.10
32506;DHT22;18955;51.224;8.482;2024-03-06T09:02:39;8.50;76.80
32506;DHT22;18955;51.224;8.482;2024-03-06T09:05:07;8.80;76.50
32506;DHT22;18955;51.224;8.482;2024-03-06T09:07:39;9.00;75.00
32506;DHT22;18955;51.224;8.482;2024-03-06T09:10:07;8.90;75.40
32506;DHT22;18955;51.224;8.482;2024-03-06T09:12:33;8.70;76.20
32506;DHT22;18955;51.224;8.482;2024-03-06T09:15:02;8.60;76.90
32506;DHT22;18955;51.224;8.482;2024-03-06T09:17:29;8.90;76.30
32506;DHT22;18955;51.224;8.482;2024-03-06T09:19:55;9.10;75.10
32506;DHT22;18955;51.224;8.482;2024-03-06T09:22:22;9.00;75.40
32506;DHT22;18955;51.224;8.482;2024-03-06T09:24:48;8.80;76.30
32506;DHT22;18955;51.224;8.482;2024-03-06T09:27:15;8.60;76.90
32506;DHT22;18955;51.224;8.482;2024-03-06T09:29:43;8.90;76.60
32506;DHT22;18955;51.224;8.482;2024-03-06T09:32:09;9.20;75.10
32506;DHT22;18955;51.224;8.482;2024-03-06T09:34:35;9.00;75.30
32506;DHT22;18955;51.224;8.482;2024-03-06T09:37:02;8.80;76.10
32506;DHT22;18955;51.224;8.482;2024-03-06T09:39:29;8.70;77.00
32506;DHT22;18955;51.224;8.482;2024-03-06T09:41:56;8.90;77.00
32506;DHT22;18955;51.224;8.482;2024-03-06T09:44:23;9.20;75.20
32506;DHT22;18955;51.224;8.482;2024-03-06T09:46:49;9.10;75.30
32506;DHT22;18955;51.224;8.482;2024-03-06T09:49:18;9.00;76.00
32506;DHT22;18955;51.224;8.482;2024-03-06T09:51:46;8.80;76.80
32506;DHT22;18955;51.224;8.482;2024-03-06T09:54:14;8.90;77.20
32506;DHT22;18955;51.224;8.482;2024-03-06T09:56:49;9.30;75.30
32506;DHT22;18955;51.224;8.482;2024-03-06T09:59:15;9.30;75.30
32506;DHT22;18955;51.224;8.482;2024-03-06T10:01:57;9.10;76.60
32506;DHT22;18955;51.224;8.482;2024-03-06T10:04:25;8.90;76.80
32506;DHT22;18955;51.224;8.482;2024-03-06T10:06:59;8.90;77.20
32506;DHT22;18955;51.224;8.482;2024-03-06T10:09:27;9.40;75.40
32506;DHT22;18955;51.224;8.482;2024-03-06T10:11:53;9.30;75.20
32506;DHT22;18955;51.224;8.482;2024-03-06T10:14:22;9.20;76.60
32506;DHT22;18955;51.224;8.482;2024-03-06T10:16:56;9.00;76.60
32506;DHT22;18955;51.224;8.482;2024-03-06T10:19:23;8.90;77.10
32506;DHT22;18955;51.224;8.482;2024-03-06T10:21:50;9.50;75.50
32506;DHT22;18955;51.224;8.482;2024-03-06T10:24:26;9.60;75.10
32506;DHT22;18955;51.224;8.482;2024-03-06T10:26:58;9.40;75.70
32506;DHT22;18955;51.224;8.482;2024-03-06T10:29:26;9.20;76.50
32506;DHT22;18955;51.224;8.482;2024-03-06T10:31:57;9.10;76.90
32506;DHT22;18955;51.224;8.482;2024-03-06T10:34:27;9.50;76.40
32506;DHT22;18955;51.224;8.482;2024-03-06T10:36:55;9.70;74.90
32506;DHT22;18955;51.224;8.482;2024-03-06T10:39:22;9.60;75.40
32506;DHT22;18955;51.224;8.482;2024-03-06T10:41:56;9.40;76.10
32506;DHT22;18955;51.224;8.482;2024-03-06T10:44:27;9.30;76.80
32506;DHT22;18955;51.224;8.482;2024-03-06T10:47:00;9.30;77.00
32506;DHT22;18955;51.224;8.482;2024-03-06T10:49:27;9.80;75.40
32506;DHT22;18955;51.224;8.482;2024-03-06T10:52:00;9.80;75.20
32506;DHT22;18955;51.224;8.482;2024-03-06T10:54:28;9.60;75.90
32506;DHT22;18955;51.224;8.482;2024-03-06T10:56:55;9.50;76.80
32506;DHT22;18955;51.224;8.482;2024-03-06T10:59:24;9.40;77.10
32506;DHT22;18955;51.224;8.482;2024-03-06T11:01:54;9.70;76.60
32506;DHT22;18955;51.224;8.482;2024-03-06T11:04:31;10.00;75.20
32506;DHT22;18955;51.224;8.482;2024-03-06T11:07:02;9.80;75.70
32506;DHT22;18955;51.224;8.482;2024-03-06T11:09:38;9.70;76.40
32506;DHT22;18955;51.224;8.482;2024-03-06T11:12:05;9.50;77.20
32506;DHT22;18955;51.224;8.482;2024-03-06T11:14:36;9.40;77.40
32506;DHT22;18955;51.224;8.482;2024-03-06T11:19:30;10.00;75.30
32506;DHT22;18955;51.224;8.482;2024-03-06T11:21:57;9.90;76.00
32506;DHT22;18955;51.224;8.482;2024-03-06T11:24:24;9.70;76.70
32506;DHT22;18955;51.224;8.482;2024-03-06T11:27:06;9.60;77.40
32506;DHT22;18955;51.224;8.482;2024-03-06T11:30:07;9.60;77.50
32506;DHT22;18955;51.224;8.482;2024-03-06T11:32:58;10.20;75.50
32506;DHT22;18955;51.224;8.482;2024-03-06T11:35:29;10.10;75.70
32506;DHT22;18955;51.224;8.482;2024-03-06T11:37:56;9.90;76.40
32506;DHT22;18955;51.224;8.482;2024-03-06T11:40:23;9.70;77.20
32506;DHT22;18955;51.224;8.482;2024-03-06T11:42:53;9.60;77.80
32506;DHT22;18955;51.224;8.482;2024-03-06T11:45:19;9.90;77.10
32506;DHT22;18955;51.224;8.482;2024-03-06T11:50:25;10.10;75.90
32506;DHT22;18955;51.224;8.482;2024-03-06T11:52:52;10.00;76.60
32506;DHT22;18955;51.224;8.482;2024-03-06T11:55:18;9.80;77.30
32506;DHT22;18955;51.224;8.482;2024-03-06T11:57:46;9.70;77.80
32506;DHT22;18955;51.224;8.482;2024-03-06T12:00:14;9.90;77.40
32506;DHT22;18955;51.224;8.482;2024-03-06T12:02:41;10.30;75.60
32506;DHT22;18955;51.224;8.482;2024-03-06T12:05:09;10.20;75.90
32506;DHT22;18955;51.224;8.482;2024-03-06T12:07:47;10.10;76.60
32506;DHT22;18955;51.224;8.482;2024-03-06T12:10:13;9.90;77.40
32506;DHT22;18955;51.224;8.482;2024-03-06T12:12:41;9.80;77.90
32506;DHT22;18955;51.224;8.482;2024-03-06T12:15:09;9.90;77.90
32506;DHT22;18955;51.224;8.482;2024-03-06T12:17:49;10.40;75.80
32506;DHT22;18955;51.224;8.482;2024-03-06T12:20:18;10.30;75.90
32506;DHT22;18955;51.224;8.482;2024-03-06T12:22:48;10.20;76.70
32506;DHT22;18955;51.224;8.482;2024-03-06T12:25:24;10.00;77.30
32506;DHT22;18955;51.224;8.482;2024-03-06T12:27:53;9.90;78.00
32506;DHT22;18955;51.224;8.482;2024-03-06T12:30:20;9.90;78.00
32506;DHT22;18955;51.224;8.482;2024-03-06T12:33:02;10.40;76.30
32506;DHT22;18955;51.224;8.482;2024-03-06T12:35:32;10.40;76.00
32506;DHT22;18955;51.224;8.482;2024-03-06T12:37:58;10.20;76.70
32506;DHT22;18955;51.224;8.482;2024-03-06T12:40:24;10.10;77.40
32506;DHT22;18955;51.224;8.482;2024-03-06T12:42:51;10.00;78.00
32506;DHT22;18955;51.224;8.482;2024-03-06T12:45:19;9.90;78.30
32506;DHT22;18955;51.224;8.482;2024-03-06T12:47:47;10.30;77.10
32506;DHT22;18955;51.224;8.482;2024-03-06T12:50:16;10.50;76.00
32506;DHT22;18955;51.224;8.482;2024-03-06T12:52:42;10.50;76.50
32506;DHT22;18955;51.224;8.482;2024-03-06T12:55:11;10.30;77.30
32506;DHT22;18955;51.224;8.482;2024-03-06T12:57:38;10.20;77.90
32506;DHT22;18955;51.224;8.482;2024-03-06T13:00:04;10.10;78.10
32506;DHT22;18955;51.224;8.482;2024-03-06T13:02:37;10.10;78.00
32506;DHT22;18955;51.224;8.482;2024-03-06T13:05:04;10.70;76.00
32506;DHT22;18955;51.224;8.482;2024-03-06T13:07:30;10.70;75.90
32506;DHT22;18955;51.224;8.482;2024-03-06T13:09:56;10.50;76.50
32506;DHT22;18955;51.224;8.482;2024-03-06T13:12:22;10.40;77.20
32506;DHT22;18955;51.224;8.482;2024-03-06T13:14:49;10.30;77.70
32506;DHT22;18955;51.224;8.482;2024-03-06T13:17:15;10.20;78.20
32506;DHT22;18955;51.224;8.482;2024-03-06T13:19:41;10.20;78.10
32506;DHT22;18955;51.224;8.482;2024-03-06T13:22:07;10.80;76.10
32506;DHT22;18955;51.224;8.482;2024-03-06T13:24:33;10.80;76.00
32506;DHT22;18955;51.224;8.482;2024-03-06T13:27:00;10.70;77.00
32506;DHT22;18955;51.224;8.482;2024-03-06T13:29:26;10.50;77.50
32506;DHT22;18955;51.224;8.482;2024-03-06T13:31:53;10.40;78.00
32506;DHT22;18955;51.224;8.482;2024-03-06T13:34:19;10.30;78.20
32506;DHT22;18955;51.224;8.482;2024-03-06T13:36:45;10.30;78.00
32506;DHT22;18955;51.224;8.482;2024-03-06T13:39:11;10.90;76.30
32506;DHT22;18955;51.224;8.482;2024-03-06T13:41:37;10.90;76.10
32506;DHT22;18955;51.224;8.482;2024-03-06T13:44:04;10.70;76.80
32506;DHT22;18955;51.224;8.482;2024-03-06T13:46:31;10.60;77.30
32506;DHT22;18955;51.224;8.482;2024-03-06T13:48:57;10.50;77.90
32506;DHT22;18955;51.224;8.482;2024-03-06T13:51:23;10.40;78.30
32506;DHT22;18955;51.224;8.482;2024-03-06T13:53:49;10.40;78.20
32506;DHT22;18955;51.224;8.482;2024-03-06T13:56:15;10.90;76.90
32506;DHT22;18955;51.224;8.482;2024-03-06T13:58:42;11.00;76.20
32506;DHT22;18955;51.224;8.482;2024-03-06T14:01:08;10.90;76.70
32506;DHT22;18955;51.224;8.482;2024-03-06T14:03:35;10.70;77.30
32506;DHT22;18955;51.224;8.482;2024-03-06T14:06:04;10.60;77.80
32506;DHT22;18955;51.224;8.482;2024-03-06T14:08:30;10.50;78.40
32506;DHT22;18955;51.224;8.482;2024-03-06T14:10:56;10.50;78.30
32506;DHT22;18955;51.224;8.482;2024-03-06T14:13:22;10.80;77.90
32506;DHT22;18955;51.224;8.482;2024-03-06T14:15:49;11.30;75.90
32506;DHT22;18955;51.224;8.482;2024-03-06T14:18:15;11.20;76.00
32506;DHT22;18955;51.224;8.482;2024-03-06T14:20:42;11.20;76.50
32506;DHT22;18955;51.224;8.482;2024-03-06T14:23:08;11.10;77.10
32506;DHT22;18955;51.224;8.482;2024-03-06T14:25:34;11.00;77.30
32506;DHT22;18955;51.224;8.482;2024-03-06T14:28:02;11.00;77.50
32506;DHT22;18955;51.224;8.482;2024-03-06T14:30:28;11.00;77.60
32506;DHT22;18955;51.224;8.482;2024-03-06T14:32:54;11.00;77.50
32506;DHT22;18955;51.224;8.482;2024-03-06T14:35:21;11.60;75.90
32506;DHT22;18955;51.224;8.482;2024-03-06T14:37:47;11.70;75.10
32506;DHT22;18955;51.224;8.482;2024-03-06T14:40:15;11.60;75.60
32506;DHT22;18955;51.224;8.482;2024-03-06T14:42:42;11.50;76.40
32506;DHT22;18955;51.224;8.482;2024-03-06T14:45:08;11.40;77.00
32506;DHT22;18955;51.224;8.482;2024-03-06T14:47:35;11.30;77.70
32506;DHT22;18955;51.224;8.482;2024-03-06T14:50:02;11.30;77.30
32506;DHT22;18955;51.224;8.482;2024-03-06T14:52:28;11.30;77.50
32506;DHT22;18955;51.224;8.482;2024-03-06T14:54:54;11.20;77.70
32506;DHT22;18955;51.224;8.482;2024-03-06T14:57:20;11.70;76.40
32506;DHT22;18955;51.224;8.482;2024-03-06T14:59:48;11.80;75.90
32506;DHT22;18955;51.224;8.482;2024-03-06T15:02:15;11.70;76.00
32506;DHT22;18955;51.224;8.482;2024-03-06T15:04:41;11.50;76.60
32506;DHT22;18955;51.224;8.482;2024-03-06T15:07:07;11.40;77.40
32506;DHT22;18955;51.224;8.482;2024-03-06T15:09:33;11.30;77.80
32506;DHT22;18955;51.224;8.482;2024-03-06T15:11:59;11.20;78.00
32506;DHT22;18955;51.224;8.482;2024-03-06T15:14:31;11.10;78.30
32506;DHT22;18955;51.224;8.482;2024-03-06T15:16:58;11.10;78.60
32506;DHT22;18955;51.224;8.482;2024-03-06T15:19:24;11.50;77.60
32506;DHT22;18955;51.224;8.482;2024-03-06T15:21:50;11.70;76.60
32506;DHT22;18955;51.224;8.482;2024-03-06T15:24:20;11.60;76.80
32506;DHT22;18955;51.224;8.482;2024-03-06T15:26:46;11.50;77.20
32506;DHT22;18955;51.224;8.482;2024-03-06T15:29:12;11.30;77.70
32506;DHT22;18955;51.224;8.482;2024-03-06T15:31:39;11.30;78.30
32506;DHT22;18955;51.224;8.482;2024-03-06T15:34:06;11.20;78.50
32506;DHT22;18955;51.224;8.482;2024-03-06T15:36:32;11.10;78.70
32506;DHT22;18955;51.224;8.482;2024-03-06T15:38:59;11.10;78.90
32506;DHT22;18955;51.224;8.482;2024-03-06T15:41:25;11.20;79.00
32506;DHT22;18955;51.224;8.482;2024-03-06T15:43:51;11.70;77.10
32506;DHT22;18955;51.224;8.482;2024-03-06T15:46:17;11.70;76.80
32506;DHT22;18955;51.224;8.482;2024-03-06T15:48:43;11.50;77.40